sensor_id;sensor_type;location;lat;lon;timestamp;P1;durP1;ratioP1;P2;durP2;ratioP2
47433;SDS011;33184;48.774;8.918;2023-03-04T00:00:18;41.87;;;22.97;;
47433;SDS011;33184;48.774;8.918;2023-03-04T00:05:39;47.00;;;23.20;;
47433;SDS011;33184;48.774;8.918;2023-03-04T00:11:00;45.70;;;22.33;;
47433;SDS011;33184;48.774;8.918;2023-03-04T00:16:21;45.17;;;21.43;;
47433;SDS011;33184;48.774;8.918;2023-03-04T00:21:42;48.00;;;23.10;;
47433;SDS011;33184;48.774;8.918;2023-03-04T00:27:02;47.33;;;24.37;;
47433;SDS011;33184;48.774;8.918;2023-03-04T00:32:24;45.57;;;24.70;;
47433;SDS011;33184;48.774;8.918;2023-03-04T00:37:44;42.30;;;23.73;;
47433;SDS011;33184;48.774;8.918;2023-03-04T00:43:05;37.80;;;22.93;;
47433;SDS011;33184;48.774;8.918;2023-03-04T00:48:26;45.07;;;24.13;;
47433;SDS011;33184;48.774;8.918;2023-03-04T00:53:46;48.30;;;26.20;;
47433;SDS011;33184;48.774;8.918;2023-03-04T00:59:07;40.97;;;25.37;;
47433;SDS011;33184;48.774;8.918;2023-03-04T01:04:27;52.23;;;26.07;;
47433;SDS011;33184;48.774;8.918;2023-03-04T01:09:48;46.40;;;25.07;;
47433;SDS011;33184;48.774;8.918;2023-03-04T01:15:09;42.00;;;22.60;;
47433;SDS011;33184;48.774;8.918;2023-03-04T01:20:32;40.63;;;21.80;;
47433;SDS011;33184;48.774;8.918;2023-03-04T01:25:53;43.50;;;22.67;;
47433;SDS011;33184;48.774;8.918;2023-03-04T01:31:14;44.40;;;21.53;;
47433;SDS011;33184;48.774;8.918;2023-03-04T01:36:34;48.27;;;23.13;;
47433;SDS011;33184;48.774;8.918;2023-03-04T01:41:55;40.77;;;21.60;;
47433;SDS011;33184;48.774;8.918;2023-03-04T01:47:15;37.13;;;19.97;;
47433;SDS011;33184;48.774;8.918;2023-03-04T01:52:36;44.53;;;21.60;;
47433;SDS011;33184;48.774;8.918;2023-03-04T01:58:00;35.53;;;20.33;;
47433;SDS011;33184;48.774;8.918;2023-03-04T02:03:20;37.07;;;19.90;;
47433;SDS011;33184;48.774;8.918;2023-03-04T02:08:41;38.50;;;17.63;;
47433;SDS011;33184;48.774;8.918;2023-03-04T02:14:02;33.73;;;19.10;;
47433;SDS011;33184;48.774;8.918;2023-03-04T02:25:25;34.27;;;18.97;;
47433;SDS011;33184;48.774;8.918;2023-03-04T02:30:53;42.13;;;21.83;;
47433;SDS011;33184;48.774;8.918;2023-03-04T02:36:14;36.13;;;19.00;;
47433;SDS011;33184;48.774;8.918;2023-03-04T02:41:36;33.93;;;16.97;;
47433;SDS011;33184;48.774;8.918;2023-03-04T02:46:57;37.63;;;17.70;;
47433;SDS011;33184;48.774;8.918;2023-03-04T02:52:20;29.90;;;15.70;;
47433;SDS011;33184;48.774;8.918;2023-03-04T02:57:44;30.23;;;17.73;;
47433;SDS011;33184;48.774;8.918;2023-03-04T03:03:05;29.73;;;15.63;;
47433;SDS011;33184;48.774;8.918;2023-03-04T03:08:30;28.50;;;15.37;;
47433;SDS011;33184;48.774;8.918;2023-03-04T03:13:50;30.70;;;16.20;;
47433;SDS011;33184;48.774;8.918;2023-03-04T03:19:12;27.43;;;14.20;;
47433;SDS011;33184;48.774;8.918;2023-03-04T03:24:33;29.50;;;15.77;;
47433;SDS011;33184;48.774;8.918;2023-03-04T03:29:54;25.50;;;14.50;;
47433;SDS011;33184;48.774;8.918;2023-03-04T03:35:14;30.73;;;15.40;;
47433;SDS011;33184;48.774;8.918;2023-03-04T03:40:36;30.57;;;16.53;;
47433;SDS011;33184;48.774;8.918;2023-03-04T03:45:56;29.33;;;14.83;;
47433;SDS011;33184;48.774;8.918;2023-03-04T03:51:17;30.50;;;17.27;;
47433;SDS011;33184;48.774;8.918;2023-03-04T03:56:37;32.00;;;16.67;;
47433;SDS011;33184;48.774;8.918;2023-03-04T04:01:58;32.37;;;16.23;;
47433;SDS011;33184;48.774;8.918;2023-03-04T04:07:19;31.87;;;15.33;;
47433;SDS011;33184;48.774;8.918;2023-03-04T04:12:39;34.93;;;17.30;;
47433;SDS011;33184;48.774;8.918;2023-03-04T04:18:00;32.33;;;16.30;;
47433;SDS011;33184;48.774;8.918;2023-03-04T04:23:20;38.30;;;17.00;;
47433;SDS011;33184;48.774;8.918;2023-03-04T04:28:41;32.17;;;15.73;;
47433;SDS011;33184;48.774;8.918;2023-03-04T04:34:01;32.83;;;17.67;;
47433;SDS011;33184;48.774;8.918;2023-03-04T04:39:23;34.73;;;16.53;;
47433;SDS011;33184;48.774;8.918;2023-03-04T04:44:43;35.83;;;16.57;;
47433;SDS011;33184;48.774;8.918;2023-03-04T04:50:05;34.73;;;16.70;;
47433;SDS011;33184;48.774;8.918;2023-03-04T04:55:26;34.67;;;17.07;;
47433;SDS011;33184;48.774;8.918;2023-03-04T05:00:47;35.53;;;16.50;;
47433;SDS011;33184;48.774;8.918;2023-03-04T05:06:08;30.30;;;15.90;;
47433;SDS011;33184;48.774;8.918;2023-03-04T05:11:30;30.73;;;16.47;;
47433;SDS011;33184;48.774;8.918;2023-03-04T05:16:51;33.77;;;14.90;;
47433;SDS011;33184;48.774;8.918;2023-03-04T05:22:12;35.10;;;15.70;;
47433;SDS011;33184;48.774;8.918;2023-03-04T05:27:32;32.07;;;14.07;;
47433;SDS011;33184;48.774;8.918;2023-03-04T05:32:53;29.30;;;14.00;;
47433;SDS011;33184;48.774;8.918;2023-03-04T05:38:14;30.43;;;14.97;;
47433;SDS011;33184;48.774;8.918;2023-03-04T05:43:37;36.90;;;16.77;;
47433;SDS011;33184;48.774;8.918;2023-03-04T05:49:02;27.57;;;14.47;;
47433;SDS011;33184;48.774;8.918;2023-03-04T05:54:22;30.07;;;14.70;;
47433;SDS011;33184;48.774;8.918;2023-03-04T05:59:43;35.33;;;16.30;;
47433;SDS011;33184;48.774;8.918;2023-03-04T06:05:04;30.83;;;16.80;;
47433;SDS011;33184;48.774;8.918;2023-03-04T06:10:25;29.70;;;14.87;;
47433;SDS011;33184;48.774;8.918;2023-03-04T06:15:45;33.27;;;15.40;;
47433;SDS011;33184;48.774;8.918;2023-03-04T06:21:06;32.63;;;15.80;;
47433;SDS011;33184;48.774;8.918;2023-03-04T06:26:27;31.53;;;16.43;;
47433;SDS011;33184;48.774;8.918;2023-03-04T06:31:47;27.57;;;16.23;;
47433;SDS011;33184;48.774;8.918;2023-03-04T06:37:08;31.20;;;15.90;;
47433;SDS011;33184;48.774;8.918;2023-03-04T06:42:28;29.67;;;14.93;;
47433;SDS011;33184;48.774;8.918;2023-03-04T06:47:49;40.07;;;17.70;;
47433;SDS011;33184;48.774;8.918;2023-03-04T06:53:09;36.50;;;19.23;;
47433;SDS011;33184;48.774;8.918;2023-03-04T06:58:30;32.53;;;17.47;;
47433;SDS011;33184;48.774;8.918;2023-03-04T07:03:52;34.10;;;18.87;;
47433;SDS011;33184;48.774;8.918;2023-03-04T07:09:13;43.57;;;22.13;;
47433;SDS011;33184;48.774;8.918;2023-03-04T07:14:34;43.60;;;19.90;;
47433;SDS011;33184;48.774;8.918;2023-03-04T07:19:54;43.73;;;20.80;;
47433;SDS011;33184;48.774;8.918;2023-03-04T07:25:15;43.57;;;19.37;;
47433;SDS011;33184;48.774;8.918;2023-03-04T07:30:37;45.23;;;18.30;;
47433;SDS011;33184;48.774;8.918;2023-03-04T07:35:58;38.63;;;17.90;;
47433;SDS011;33184;48.774;8.918;2023-03-04T07:41:20;47.17;;;18.23;;
47433;SDS011;33184;48.774;8.918;2023-03-04T07:46:42;37.90;;;19.47;;
47433;SDS011;33184;48.774;8.918;2023-03-04T07:52:03;36.93;;;16.57;;
47433;SDS011;33184;48.774;8.918;2023-03-04T07:57:24;36.67;;;17.07;;
47433;SDS011;33184;48.774;8.918;2023-03-04T08:02:45;35.87;;;16.80;;
47433;SDS011;33184;48.774;8.918;2023-03-04T08:08:05;40.03;;;19.63;;
47433;SDS011;33184;48.774;8.918;2023-03-04T08:13:26;42.67;;;19.37;;
47433;SDS011;33184;48.774;8.918;2023-03-04T08:18:47;37.60;;;16.77;;
47433;SDS011;33184;48.774;8.918;2023-03-04T08:24:10;37.23;;;18.17;;
47433;SDS011;33184;48.774;8.918;2023-03-04T08:29:31;34.33;;;16.20;;
47433;SDS011;33184;48.774;8.918;2023-03-04T08:34:51;38.23;;;17.13;;
47433;SDS011;33184;48.774;8.918;2023-03-04T08:40:14;30.17;;;15.40;;
47433;SDS011;33184;48.774;8.918;2023-03-04T08:45:35;32.70;;;16.63;;
47433;SDS011;33184;48.774;8.918;2023-03-04T08:50:55;34.63;;;16.03;;
47433;SDS011;33184;48.774;8.918;2023-03-04T08:56:16;29.77;;;15.17;;
47433;SDS011;33184;48.774;8.918;2023-03-04T09:01:37;36.80;;;16.07;;
47433;SDS011;33184;48.774;8.918;2023-03-04T09:06:57;33.73;;;17.97;;
47433;SDS011;33184;48.774;8.918;2023-03-04T09:12:18;43.93;;;17.67;;
47433;SDS011;33184;48.774;8.918;2023-03-04T09:17:39;37.23;;;18.73;;
47433;SDS011;33184;48.774;8.918;2023-03-04T09:23:00;39.70;;;20.33;;
47433;SDS011;33184;48.774;8.918;2023-03-04T09:28:21;43.30;;;21.90;;
47433;SDS011;33184;48.774;8.918;2023-03-04T09:33:41;42.37;;;21.50;;
47433;SDS011;33184;48.774;8.918;2023-03-04T09:39:02;44.87;;;22.57;;
47433;SDS011;33184;48.774;8.918;2023-03-04T09:44:31;41.33;;;22.10;;
47433;SDS011;33184;48.774;8.918;2023-03-04T09:49:59;45.37;;;22.30;;
47433;SDS011;33184;48.774;8.918;2023-03-04T10:00:57;43.23;;;23.73;;
47433;SDS011;33184;48.774;8.918;2023-03-04T10:06:22;48.37;;;25.83;;
47433;SDS011;33184;48.774;8.918;2023-03-04T10:11:44;49.07;;;24.70;;
47433;SDS011;33184;48.774;8.918;2023-03-04T10:23:20;49.37;;;25.67;;
47433;SDS011;33184;48.774;8.918;2023-03-04T10:28:41;45.73;;;25.07;;
47433;SDS011;33184;48.774;8.918;2023-03-04T10:34:02;44.17;;;23.60;;
47433;SDS011;33184;48.774;8.918;2023-03-04T10:39:25;52.47;;;26.73;;
47433;SDS011;33184;48.774;8.918;2023-03-04T10:44:55;48.00;;;22.67;;
47433;SDS011;33184;48.774;8.918;2023-03-04T10:50:22;44.87;;;24.97;;
47433;SDS011;33184;48.774;8.918;2023-03-04T10:55:47;47.23;;;25.40;;
47433;SDS011;33184;48.774;8.918;2023-03-04T11:01:09;44.60;;;23.97;;
47433;SDS011;33184;48.774;8.918;2023-03-04T11:06:39;46.30;;;25.00;;
47433;SDS011;33184;48.774;8.918;2023-03-04T11:12:00;42.23;;;24.47;;
47433;SDS011;33184;48.774;8.918;2023-03-04T11:17:25;52.47;;;27.87;;
47433;SDS011;33184;48.774;8.918;2023-03-04T11:22:48;54.35;;;28.50;;
47433;SDS011;33184;48.774;8.918;2023-03-04T11:28:12;50.27;;;27.13;;
47433;SDS011;33184;48.774;8.918;2023-03-04T11:33:52;46.60;;;24.50;;
47433;SDS011;33184;48.774;8.918;2023-03-04T11:39:19;46.03;;;23.53;;
47433;SDS011;33184;48.774;8.918;2023-03-04T11:45:00;43.13;;;24.03;;
47433;SDS011;33184;48.774;8.918;2023-03-04T11:50:22;42.17;;;24.63;;
47433;SDS011;33184;48.774;8.918;2023-03-04T12:19:25;45.37;;;21.70;;
47433;SDS011;33184;48.774;8.918;2023-03-04T12:25:06;43.03;;;24.33;;
47433;SDS011;33184;48.774;8.918;2023-03-04T12:53:36;47.77;;;25.37;;
47433;SDS011;33184;48.774;8.918;2023-03-04T12:59:02;44.00;;;23.33;;
47433;SDS011;33184;48.774;8.918;2023-03-04T13:10:36;44.57;;;23.17;;
47433;SDS011;33184;48.774;8.918;2023-03-04T13:16:04;48.37;;;23.20;;
47433;SDS011;33184;48.774;8.918;2023-03-04T13:21:34;48.50;;;25.13;;
47433;SDS011;33184;48.774;8.918;2023-03-04T13:43:54;45.03;;;23.00;;
47433;SDS011;33184;48.774;8.918;2023-03-04T13:49:18;44.47;;;22.70;;
47433;SDS011;33184;48.774;8.918;2023-03-04T13:54:42;46.10;;;21.53;;
47433;SDS011;33184;48.774;8.918;2023-03-04T14:00:03;50.40;;;23.83;;
47433;SDS011;33184;48.774;8.918;2023-03-04T14:05:31;41.67;;;19.83;;
47433;SDS011;33184;48.774;8.918;2023-03-04T14:10:54;41.08;;;19.88;;
47433;SDS011;33184;48.774;8.918;2023-03-04T14:16:22;44.27;;;20.30;;
47433;SDS011;33184;48.774;8.918;2023-03-04T14:21:46;45.13;;;16.57;;
47433;SDS011;33184;48.774;8.918;2023-03-04T14:27:11;51.30;;;20.73;;
47433;SDS011;33184;48.774;8.918;2023-03-04T14:32:33;42.47;;;17.77;;
47433;SDS011;33184;48.774;8.918;2023-03-04T14:37:58;43.00;;;18.33;;
47433;SDS011;33184;48.774;8.918;2023-03-04T14:43:22;49.47;;;22.33;;
47433;SDS011;33184;48.774;8.918;2023-03-04T14:48:44;43.97;;;19.63;;
47433;SDS011;33184;48.774;8.918;2023-03-04T14:59:53;41.30;;;19.13;;
47433;SDS011;33184;48.774;8.918;2023-03-04T15:05:17;45.57;;;20.13;;
47433;SDS011;33184;48.774;8.918;2023-03-04T15:10:42;41.23;;;19.23;;
47433;SDS011;33184;48.774;8.918;2023-03-04T15:16:13;40.67;;;20.33;;
47433;SDS011;33184;48.774;8.918;2023-03-04T15:21:35;39.37;;;18.73;;
47433;SDS011;33184;48.774;8.918;2023-03-04T15:26:57;41.73;;;17.73;;
47433;SDS011;33184;48.774;8.918;2023-03-04T15:32:18;41.93;;;18.47;;
47433;SDS011;33184;48.774;8.918;2023-03-04T15:37:39;46.00;;;18.80;;
47433;SDS011;33184;48.774;8.918;2023-03-04T15:43:02;37.33;;;16.90;;
47433;SDS011;33184;48.774;8.918;2023-03-04T15:48:24;41.10;;;17.13;;
47433;SDS011;33184;48.774;8.918;2023-03-04T15:54:06;38.03;;;16.03;;
47433;SDS011;33184;48.774;8.918;2023-03-04T15:59:26;40.40;;;17.43;;
47433;SDS011;33184;48.774;8.918;2023-03-04T16:04:47;33.77;;;16.03;;
47433;SDS011;33184;48.774;8.918;2023-03-04T16:10:11;31.40;;;13.97;;
47433;SDS011;33184;48.774;8.918;2023-03-04T16:15:47;34.73;;;14.93;;
47433;SDS011;33184;48.774;8.918;2023-03-04T16:21:10;34.00;;;15.47;;
47433;SDS011;33184;48.774;8.918;2023-03-04T16:26:33;70.37;;;31.10;;
47433;SDS011;33184;48.774;8.918;2023-03-04T16:31:55;62.77;;;29.33;;
47433;SDS011;33184;48.774;8.918;2023-03-04T16:37:17;38.87;;;17.00;;
47433;SDS011;33184;48.774;8.918;2023-03-04T16:42:39;24.80;;;13.87;;
47433;SDS011;33184;48.774;8.918;2023-03-04T16:48:00;32.03;;;14.17;;
47433;SDS011;33184;48.774;8.918;2023-03-04T16:53:22;35.10;;;13.90;;
47433;SDS011;33184;48.774;8.918;2023-03-04T16:58:48;31.23;;;13.80;;
47433;SDS011;33184;48.774;8.918;2023-03-04T17:04:09;29.00;;;12.97;;
47433;SDS011;33184;48.774;8.918;2023-03-04T17:09:30;35.37;;;16.27;;
47433;SDS011;33184;48.774;8.918;2023-03-04T17:14:50;41.57;;;16.63;;
47433;SDS011;33184;48.774;8.918;2023-03-04T17:20:12;32.40;;;14.30;;
47433;SDS011;33184;48.774;8.918;2023-03-04T17:25:35;32.37;;;15.13;;
47433;SDS011;33184;48.774;8.918;2023-03-04T17:30:55;32.73;;;15.07;;
47433;SDS011;33184;48.774;8.918;2023-03-04T17:36:16;28.87;;;14.13;;
47433;SDS011;33184;48.774;8.918;2023-03-04T17:41:38;34.97;;;14.00;;
47433;SDS011;33184;48.774;8.918;2023-03-04T17:46:58;34.33;;;14.50;;
47433;SDS011;33184;48.774;8.918;2023-03-04T17:52:19;36.93;;;14.63;;
47433;SDS011;33184;48.774;8.918;2023-03-04T17:57:40;31.53;;;14.00;;
47433;SDS011;33184;48.774;8.918;2023-03-04T18:03:01;36.50;;;14.90;;
47433;SDS011;33184;48.774;8.918;2023-03-04T18:08:21;34.07;;;15.83;;
47433;SDS011;33184;48.774;8.918;2023-03-04T18:13:42;33.77;;;16.23;;
47433;SDS011;33184;48.774;8.918;2023-03-04T18:19:03;37.00;;;16.70;;
47433;SDS011;33184;48.774;8.918;2023-03-04T18:24:24;41.93;;;18.87;;
47433;SDS011;33184;48.774;8.918;2023-03-04T18:29:45;35.00;;;17.20;;
47433;SDS011;33184;48.774;8.918;2023-03-04T18:35:07;30.67;;;16.27;;
47433;SDS011;33184;48.774;8.918;2023-03-04T18:40:28;33.70;;;13.87;;
47433;SDS011;33184;48.774;8.918;2023-03-04T18:46:07;40.43;;;17.37;;
47433;SDS011;33184;48.774;8.918;2023-03-04T18:51:30;37.63;;;18.30;;
47433;SDS011;33184;48.774;8.918;2023-03-04T18:56:55;40.00;;;18.27;;
47433;SDS011;33184;48.774;8.918;2023-03-04T19:07:45;37.97;;;17.00;;
47433;SDS011;33184;48.774;8.918;2023-03-04T19:13:06;38.53;;;17.40;;
47433;SDS011;33184;48.774;8.918;2023-03-04T19:18:27;38.47;;;18.87;;
47433;SDS011;33184;48.774;8.918;2023-03-04T19:23:48;37.67;;;17.37;;
47433;SDS011;33184;48.774;8.918;2023-03-04T19:29:08;33.13;;;16.90;;
47433;SDS011;33184;48.774;8.918;2023-03-04T19:34:29;36.23;;;18.43;;
47433;SDS011;33184;48.774;8.918;2023-03-04T19:39:50;34.63;;;17.13;;
47433;SDS011;33184;48.774;8.918;2023-03-04T19:45:13;37.00;;;17.67;;
47433;SDS011;33184;48.774;8.918;2023-03-04T19:50:34;42.80;;;18.50;;
47433;SDS011;33184;48.774;8.918;2023-03-04T19:55:54;40.60;;;19.23;;
47433;SDS011;33184;48.774;8.918;2023-03-04T20:01:25;34.17;;;18.57;;
47433;SDS011;33184;48.774;8.918;2023-03-04T20:06:47;37.27;;;17.87;;
47433;SDS011;33184;48.774;8.918;2023-03-04T20:12:10;35.23;;;15.90;;
47433;SDS011;33184;48.774;8.918;2023-03-04T20:17:33;40.20;;;18.53;;
47433;SDS011;33184;48.774;8.918;2023-03-04T20:22:55;36.90;;;18.33;;
47433;SDS011;33184;48.774;8.918;2023-03-04T20:28:15;34.63;;;18.27;;
47433;SDS011;33184;48.774;8.918;2023-03-04T20:33:36;34.90;;;16.47;;
47433;SDS011;33184;48.774;8.918;2023-03-04T20:38:57;35.07;;;16.97;;
47433;SDS011;33184;48.774;8.918;2023-03-04T20:44:17;38.10;;;17.87;;
47433;SDS011;33184;48.774;8.918;2023-03-04T20:49:38;36.73;;;17.80;;
47433;SDS011;33184;48.774;8.918;2023-03-04T20:54:58;29.43;;;15.43;;
47433;SDS011;33184;48.774;8.918;2023-03-04T21:00:20;31.93;;;15.03;;
47433;SDS011;33184;48.774;8.918;2023-03-04T21:05:40;38.17;;;18.90;;
47433;SDS011;33184;48.774;8.918;2023-03-04T21:11:01;29.47;;;16.17;;
47433;SDS011;33184;48.774;8.918;2023-03-04T21:16:23;35.83;;;15.97;;
47433;SDS011;33184;48.774;8.918;2023-03-04T21:21:47;32.67;;;16.33;;
47433;SDS011;33184;48.774;8.918;2023-03-04T21:27:09;31.03;;;14.20;;
47433;SDS011;33184;48.774;8.918;2023-03-04T21:32:29;41.60;;;17.57;;
47433;SDS011;33184;48.774;8.918;2023-03-04T21:37:50;32.53;;;17.50;;
47433;SDS011;33184;48.774;8.918;2023-03-04T21:43:12;36.57;;;17.30;;
47433;SDS011;33184;48.774;8.918;2023-03-04T21:48:38;32.83;;;17.10;;
47433;SDS011;33184;48.774;8.918;2023-03-04T21:54:01;33.20;;;17.63;;
47433;SDS011;33184;48.774;8.918;2023-03-04T21:59:22;34.23;;;18.10;;
47433;SDS011;33184;48.774;8.918;2023-03-04T22:04:43;42.30;;;20.23;;
47433;SDS011;33184;48.774;8.918;2023-03-04T22:10:03;39.40;;;18.53;;
47433;SDS011;33184;48.774;8.918;2023-03-04T22:15:26;30.73;;;16.90;;
47433;SDS011;33184;48.774;8.918;2023-03-04T22:20:47;37.20;;;18.13;;
47433;SDS011;33184;48.774;8.918;2023-03-04T22:26:09;42.03;;;18.63;;
47433;SDS011;33184;48.774;8.918;2023-03-04T22:31:35;39.60;;;18.23;;
47433;SDS011;33184;48.774;8.918;2023-03-04T22:36:56;36.03;;;18.47;;
47433;SDS011;33184;48.774;8.918;2023-03-04T22:42:17;111.43;;;38.80;;
47433;SDS011;33184;48.774;8.918;2023-03-04T22:47:38;78.23;;;31.60;;
47433;SDS011;33184;48.774;8.918;2023-03-04T22:52:59;41.67;;;19.60;;
47433;SDS011;33184;48.774;8.918;2023-03-04T22:58:19;41.60;;;18.43;;
47433;SDS011;33184;48.774;8.918;2023-03-04T23:03:40;38.43;;;19.27;;
47433;SDS011;33184;48.774;8.918;2023-03-04T23:09:02;33.97;;;18.07;;
47433;SDS011;33184;48.774;8.918;2023-03-04T23:14:23;42.63;;;19.57;;
47433;SDS011;33184;48.774;8.918;2023-03-04T23:19:43;36.03;;;18.20;;
47433;SDS011;33184;48.774;8.918;2023-03-04T23:25:04;36.37;;;19.83;;
47433;SDS011;33184;48.774;8.918;2023-03-04T23:30:25;33.00;;;18.60;;
47433;SDS011;33184;48.774;8.918;2023-03-04T23:35:46;36.53;;;19.07;;
47433;SDS011;33184;48.774;8.918;2023-03-04T23:41:08;34.97;;;17.43;;
47433;SDS011;33184;48.774;8.918;2023-03-04T23:46:31;36.90;;;17.05;;
47433;SDS011;33184;48.774;8.918;2023-03-04T23:51:52;35.70;;;17.43;;
47433;SDS011;33184;48.774;8.918;2023-03-04T23:57:13;35.07;;;17.03;;
